Portada
METAR-TAF:

METAR-TAF

Aeroports :

Key West, Florida, Estats Units d'Amèrica

latitud: 24-33-13N, longitud: 081-45-13W, altitud: 1 m

Observació

L'informe es va fer fa 44 minuts, a les 14:53 UTC
Vent 3 kt del Sud
Temperatura 26°C
Humitat 79%
Pressió 1018 hPa
Visibilitat: 16.1 km
Núvols disperses a una alçada de 1800 ft

METAR: KEYW 051453Z 19003KT 10SM SCT018 26/22 A3007 RMK AO2 SLP182 60000 T02560222 53021

Hora: 10:37 (15:37 UTC)

Pronòstic

L'informe es va fer fa 28 minuts, a les 15:09 UTC
Pronòstic vàlid del 05 a les 15 UTC al 06 a les 12 UTC
Vent 3 kt amb direcció variable
Visibilitat: 10 km
Núvols disperses a una alçada de 1800 ft
Núvols disperses a una alçada de 10000 ft
A partir de les 06 a les 0600 UTC
Vent 5 kt del Nord
Visibilitat: 10 km
Núvols disperses a una alçada de 1000 ft
Cel ennuvolat a una alçada de 2000 ft

TAF: KEYW 051509Z 0515/0612 VRB03KT P6SM SCT018 SCT100 FM060600 01005KT P6SM SCT010 BKN020

Observacions i pronòstics meteorològics de més de 4000 aeroports (METAR i TAF).

Les estacions disponibles són els punts grocs i vermells al mapa.

Posi el ratolí al punt desitjat per veure el nom de l'estació.

Feu clic per veure les observacions i els pronòstics meteorològics.

Per canviar el mapa: feu clic els botons verds amb una creu de color negre per apropar; al botó verd amb un guió per allunyar la imatge; o en les fletxes verdes per a mapes adjacents.


METAR-TAF: